sensor_id;sensor_type;location;lat;lon;timestamp;pressure;altitude;pressure_sealevel;temperature;humidity
60427;BME280;46274;47.168;27.604;2024-02-26T00:04:44;99408.06;;;7.27;100.00
60427;BME280;46274;47.168;27.604;2024-02-26T00:11:01;99436.66;;;7.53;100.00
60427;BME280;46274;47.168;27.604;2024-02-26T00:17:15;99590.31;;;8.49;100.00
60427;BME280;46274;47.168;27.604;2024-02-26T00:23:21;99610.53;;;8.54;100.00
60427;BME280;46274;47.168;27.604;2024-02-26T00:29:52;99602.97;;;8.57;100.00
60427;BME280;46274;47.168;27.604;2024-02-26T00:36:00;99596.69;;;8.57;100.00
60427;BME280;46274;47.168;27.604;2024-02-26T00:42:04;99461.19;;;7.74;100.00
60427;BME280;46274;47.168;27.604;2024-02-26T00:48:14;99596.22;;;8.53;100.00
60427;BME280;46274;47.168;27.604;2024-02-26T00:54:25;99594.53;;;8.52;100.00
60427;BME280;46274;47.168;27.604;2024-02-26T01:00:27;99585.75;;;8.50;100.00
60427;BME280;46274;47.168;27.604;2024-02-26T01:06:35;99556.09;;;8.34;100.00
60427;BME280;46274;47.168;27.604;2024-02-26T01:12:38;99541.00;;;8.16;100.00
60427;BME280;46274;47.168;27.604;2024-02-26T01:18:50;99423.69;;;7.48;100.00
60427;BME280;46274;47.168;27.604;2024-02-26T01:24:53;99330.38;;;6.91;100.00
60427;BME280;46274;47.168;27.604;2024-02-26T01:30:58;99517.06;;;8.05;100.00
60427;BME280;46274;47.168;27.604;2024-02-26T01:37:11;99591.19;;;8.42;100.00
60427;BME280;46274;47.168;27.604;2024-02-26T01:43:17;99594.53;;;8.36;100.00
60427;BME280;46274;47.168;27.604;2024-02-26T01:49:21;99518.13;;;7.96;100.00
60427;BME280;46274;47.168;27.604;2024-02-26T01:55:31;99493.38;;;7.76;100.00
60427;BME280;46274;47.168;27.604;2024-02-26T02:01:52;99433.50;;;7.41;100.00
60427;BME280;46274;47.168;27.604;2024-02-26T02:07:59;99444.13;;;7.26;100.00
60427;BME280;46274;47.168;27.604;2024-02-26T02:14:05;99433.03;;;7.21;100.00
60427;BME280;46274;47.168;27.604;2024-02-26T02:20:15;99585.47;;;8.20;100.00
60427;BME280;46274;47.168;27.604;2024-02-26T02:26:19;99567.50;;;8.04;100.00
60427;BME280;46274;47.168;27.604;2024-02-26T02:32:27;99398.03;;;6.88;100.00
60427;BME280;46274;47.168;27.604;2024-02-26T02:38:37;99583.66;;;8.13;100.00
60427;BME280;46274;47.168;27.604;2024-02-26T02:44:50;99545.09;;;7.79;100.00
60427;BME280;46274;47.168;27.604;2024-02-26T02:51:05;99200.25;;;5.61;100.00
60427;BME280;46274;47.168;27.604;2024-02-26T02:57:10;99613.22;;;7.98;100.00
60427;BME280;46274;47.168;27.604;2024-02-26T03:03:31;99520.91;;;7.55;100.00
60427;BME280;46274;47.168;27.604;2024-02-26T03:09:49;99594.97;;;8.00;100.00
60427;BME280;46274;47.168;27.604;2024-02-26T03:15:52;99189.50;;;5.53;100.00
60427;BME280;46274;47.168;27.604;2024-02-26T03:22:02;99608.31;;;8.01;100.00
60427;BME280;46274;47.168;27.604;2024-02-26T03:28:10;99594.13;;;7.99;100.00
60427;BME280;46274;47.168;27.604;2024-02-26T03:34:13;99605.75;;;8.00;100.00
60427;BME280;46274;47.168;27.604;2024-02-26T03:40:31;99599.03;;;7.96;100.00
60427;BME280;46274;47.168;27.604;2024-02-26T03:46:33;99510.16;;;7.38;100.00
60427;BME280;46274;47.168;27.604;2024-02-26T03:52:39;99542.81;;;7.52;100.00
60427;BME280;46274;47.168;27.604;2024-02-26T03:58:50;99451.22;;;7.03;100.00
60427;BME280;46274;47.168;27.604;2024-02-26T04:04:53;99459.81;;;6.98;100.00
60427;BME280;46274;47.168;27.604;2024-02-26T04:11:01;99565.69;;;7.64;100.00
60427;BME280;46274;47.168;27.604;2024-02-26T04:17:11;99606.97;;;7.89;100.00
60427;BME280;46274;47.168;27.604;2024-02-26T04:23:15;99582.88;;;7.63;100.00
60427;BME280;46274;47.168;27.604;2024-02-26T04:29:23;99491.44;;;7.04;100.00
60427;BME280;46274;47.168;27.604;2024-02-26T04:35:43;99606.16;;;7.80;100.00
60427;BME280;46274;47.168;27.604;2024-02-26T04:41:52;99605.31;;;7.80;100.00
60427;BME280;46274;47.168;27.604;2024-02-26T04:48:03;99613.22;;;7.81;100.00
60427;BME280;46274;47.168;27.604;2024-02-26T04:54:06;99507.78;;;7.11;100.00
60427;BME280;46274;47.168;27.604;2024-02-26T05:00:16;99617.06;;;7.87;100.00
60427;BME280;46274;47.168;27.604;2024-02-26T05:06:32;99634.28;;;7.86;100.00
60427;BME280;46274;47.168;27.604;2024-02-26T05:12:47;99224.72;;;5.42;100.00
60427;BME280;46274;47.168;27.604;2024-02-26T05:19:08;99627.72;;;7.80;100.00
60427;BME280;46274;47.168;27.604;2024-02-26T05:25:17;99627.72;;;7.80;100.00
60427;BME280;46274;47.168;27.604;2024-02-26T05:31:27;99451.88;;;6.64;100.00
60427;BME280;46274;47.168;27.604;2024-02-26T05:37:34;99466.69;;;6.68;100.00
60427;BME280;46274;47.168;27.604;2024-02-26T05:43:42;99501.19;;;6.89;100.00
60427;BME280;46274;47.168;27.604;2024-02-26T05:49:52;99559.47;;;7.22;100.00
60427;BME280;46274;47.168;27.604;2024-02-26T05:55:54;99493.97;;;6.89;100.00
60427;BME280;46274;47.168;27.604;2024-02-26T06:02:02;99647.59;;;7.79;100.00
60427;BME280;46274;47.168;27.604;2024-02-26T06:08:05;99305.44;;;5.83;100.00
60427;BME280;46274;47.168;27.604;2024-02-26T06:14:21;99655.34;;;7.91;100.00
60427;BME280;46274;47.168;27.604;2024-02-26T06:20:30;99644.38;;;7.84;100.00
60427;BME280;46274;47.168;27.604;2024-02-26T06:26:43;99586.59;;;7.46;100.00
60427;BME280;46274;47.168;27.604;2024-02-26T06:32:45;99659.91;;;7.90;100.00
60427;BME280;46274;47.168;27.604;2024-02-26T06:39:01;99666.50;;;7.88;100.00
60427;BME280;46274;47.168;27.604;2024-02-26T06:45:05;99257.81;;;5.42;100.00
60427;BME280;46274;47.168;27.604;2024-02-26T06:51:15;99664.09;;;7.84;100.00
60427;BME280;46274;47.168;27.604;2024-02-26T06:57:42;99601.59;;;7.48;100.00
60427;BME280;46274;47.168;27.604;2024-02-26T07:03:56;99634.78;;;7.81;100.00
60427;BME280;46274;47.168;27.604;2024-02-26T07:10:17;99665.28;;;8.06;100.00
60427;BME280;46274;47.168;27.604;2024-02-26T07:16:22;99664.94;;;8.09;100.00
60427;BME280;46274;47.168;27.604;2024-02-26T07:22:39;99449.03;;;6.82;100.00
60427;BME280;46274;47.168;27.604;2024-02-26T07:28:46;99634.44;;;8.01;100.00
60427;BME280;46274;47.168;27.604;2024-02-26T07:35:02;99662.03;;;8.27;100.00
60427;BME280;46274;47.168;27.604;2024-02-26T07:41:18;99665.41;;;8.46;100.00
60427;BME280;46274;47.168;27.604;2024-02-26T07:47:34;99671.44;;;8.72;100.00
60427;BME280;46274;47.168;27.604;2024-02-26T07:53:57;99519.13;;;7.86;100.00
60427;BME280;46274;47.168;27.604;2024-02-26T07:59:59;99678.13;;;8.77;100.00
60427;BME280;46274;47.168;27.604;2024-02-26T08:06:01;99540.38;;;7.98;100.00
60427;BME280;46274;47.168;27.604;2024-02-26T08:12:07;99668.31;;;8.84;100.00
60427;BME280;46274;47.168;27.604;2024-02-26T08:18:18;99283.69;;;6.35;100.00
60427;BME280;46274;47.168;27.604;2024-02-26T08:24:23;99504.97;;;7.84;100.00
60427;BME280;46274;47.168;27.604;2024-02-26T08:30:43;99404.06;;;7.23;100.00
60427;BME280;46274;47.168;27.604;2024-02-26T08:37:05;99661.16;;;8.99;100.00
60427;BME280;46274;47.168;27.604;2024-02-26T08:43:31;99656.38;;;9.09;100.00
60427;BME280;46274;47.168;27.604;2024-02-26T08:49:42;99270.59;;;7.04;100.00
60427;BME280;46274;47.168;27.604;2024-02-26T08:55:46;99636.84;;;9.53;100.00
60427;BME280;46274;47.168;27.604;2024-02-26T09:01:59;99590.56;;;9.25;100.00
60427;BME280;46274;47.168;27.604;2024-02-26T09:08:21;99655.88;;;9.83;100.00
60427;BME280;46274;47.168;27.604;2024-02-26T09:14:33;99660.88;;;9.94;100.00
60427;BME280;46274;47.168;27.604;2024-02-26T09:20:40;99664.78;;;10.07;99.87
60427;BME280;46274;47.168;27.604;2024-02-26T09:26:45;99658.38;;;10.08;98.50
60427;BME280;46274;47.168;27.604;2024-02-26T09:33:00;99646.88;;;10.05;97.34
60427;BME280;46274;47.168;27.604;2024-02-26T09:39:03;99603.09;;;9.87;96.85
60427;BME280;46274;47.168;27.604;2024-02-26T09:45:05;99601.22;;;9.88;95.61
60427;BME280;46274;47.168;27.604;2024-02-26T09:51:14;99542.13;;;9.61;95.25
60427;BME280;46274;47.168;27.604;2024-02-26T10:04:04;99664.47;;;10.24;95.25
60427;BME280;46274;47.168;27.604;2024-02-26T10:10:13;99295.91;;;8.20;93.76
60427;BME280;46274;47.168;27.604;2024-02-26T10:16:26;99640.53;;;10.51;93.55
60427;BME280;46274;47.168;27.604;2024-02-26T10:22:54;99575.03;;;10.18;92.99
60427;BME280;46274;47.168;27.604;2024-02-26T10:36:02;99638.00;;;10.79;92.47
60427;BME280;46274;47.168;27.604;2024-02-26T10:42:12;99629.94;;;11.01;91.73
60427;BME280;46274;47.168;27.604;2024-02-26T10:48:30;99570.72;;;10.68;90.51
60427;BME280;46274;47.168;27.604;2024-02-26T10:54:35;99635.00;;;11.25;88.08
60427;BME280;46274;47.168;27.604;2024-02-26T11:00:45;99221.97;;;8.82;88.23
60427;BME280;46274;47.168;27.604;2024-02-26T11:06:57;99636.69;;;11.48;87.73
60427;BME280;46274;47.168;27.604;2024-02-26T11:13:15;99490.81;;;10.42;86.50
60427;BME280;46274;47.168;27.604;2024-02-26T11:19:39;99575.84;;;11.35;85.98
60427;BME280;46274;47.168;27.604;2024-02-26T11:25:44;99615.47;;;11.51;85.40
60427;BME280;46274;47.168;27.604;2024-02-26T11:32:06;99607.06;;;11.46;85.62
60427;BME280;46274;47.168;27.604;2024-02-26T11:52:08;99612.88;;;11.65;83.42
60427;BME280;46274;47.168;27.604;2024-02-26T11:58:32;99242.56;;;9.64;83.22
60427;BME280;46274;47.168;27.604;2024-02-26T12:05:02;99458.91;;;10.96;82.38
60427;BME280;46274;47.168;27.604;2024-02-26T12:17:56;99543.00;;;11.73;80.52
60427;BME280;46274;47.168;27.604;2024-02-26T12:24:13;99562.53;;;12.12;79.31
60427;BME280;46274;47.168;27.604;2024-02-26T12:30:25;99594.03;;;12.34;78.36
60427;BME280;46274;47.168;27.604;2024-02-26T12:36:33;99571.09;;;12.15;78.38
60427;BME280;46274;47.168;27.604;2024-02-26T12:43:06;99227.75;;;10.24;77.39
60427;BME280;46274;47.168;27.604;2024-02-26T12:49:21;99448.34;;;11.57;77.18
60427;BME280;46274;47.168;27.604;2024-02-26T13:02:17;99446.16;;;11.46;75.51
60427;BME280;46274;47.168;27.604;2024-02-26T13:08:21;99595.41;;;12.58;75.30
60427;BME280;46274;47.168;27.604;2024-02-26T13:14:27;99408.06;;;11.54;73.96
60427;BME280;46274;47.168;27.604;2024-02-26T13:20:44;99583.94;;;12.70;73.36
60427;BME280;46274;47.168;27.604;2024-02-26T13:26:54;99585.22;;;12.74;72.60
60427;BME280;46274;47.168;27.604;2024-02-26T13:33:12;99593.81;;;12.77;72.47
60427;BME280;46274;47.168;27.604;2024-02-26T13:39:45;99203.19;;;10.47;72.36
60427;BME280;46274;47.168;27.604;2024-02-26T13:46:22;99561.97;;;12.64;72.14
60427;BME280;46274;47.168;27.604;2024-02-26T13:52:29;99572.06;;;12.77;71.24
60427;BME280;46274;47.168;27.604;2024-02-26T13:58:37;99491.63;;;12.35;69.22
60427;BME280;46274;47.168;27.604;2024-02-26T14:04:46;99533.94;;;12.64;68.37
60427;BME280;46274;47.168;27.604;2024-02-26T14:11:08;99598.91;;;13.00;67.83
60427;BME280;46274;47.168;27.604;2024-02-26T14:17:26;99611.50;;;13.08;66.79
60427;BME280;46274;47.168;27.604;2024-02-26T14:23:30;99584.88;;;12.90;65.40
60427;BME280;46274;47.168;27.604;2024-02-26T14:29:33;99590.06;;;12.85;65.49
60427;BME280;46274;47.168;27.604;2024-02-26T14:35:36;99615.44;;;12.99;64.47
60427;BME280;46274;47.168;27.604;2024-02-26T14:41:42;99536.03;;;12.55;63.94
60427;BME280;46274;47.168;27.604;2024-02-26T14:48:04;99574.94;;;12.69;63.58
60427;BME280;46274;47.168;27.604;2024-02-26T14:54:13;99583.72;;;12.64;63.82
60427;BME280;46274;47.168;27.604;2024-02-26T15:00:33;99592.72;;;12.72;63.11
60427;BME280;46274;47.168;27.604;2024-02-26T15:06:52;99621.03;;;12.84;62.64
60427;BME280;46274;47.168;27.604;2024-02-26T15:12:57;99583.25;;;12.54;62.87
60427;BME280;46274;47.168;27.604;2024-02-26T15:19:04;99481.47;;;11.81;62.53
60427;BME280;46274;47.168;27.604;2024-02-26T15:25:17;99593.84;;;12.42;62.59
60427;BME280;46274;47.168;27.604;2024-02-26T15:31:28;99573.03;;;12.21;62.24
60427;BME280;46274;47.168;27.604;2024-02-26T15:37:37;99633.38;;;12.45;62.09
60427;BME280;46274;47.168;27.604;2024-02-26T15:43:55;99661.53;;;12.37;62.76
60427;BME280;46274;47.168;27.604;2024-02-26T15:50:05;99657.44;;;12.20;63.41
60427;BME280;46274;47.168;27.604;2024-02-26T15:56:16;99475.41;;;11.01;63.37
60427;BME280;46274;47.168;27.604;2024-02-26T16:02:21;99463.94;;;10.77;63.93
60427;BME280;46274;47.168;27.604;2024-02-26T16:08:26;99662.09;;;11.83;64.20
60427;BME280;46274;47.168;27.604;2024-02-26T16:14:49;99589.66;;;11.19;64.81
60427;BME280;46274;47.168;27.604;2024-02-26T16:21:04;99646.50;;;11.27;65.58
60427;BME280;46274;47.168;27.604;2024-02-26T16:27:07;99677.25;;;11.56;64.64
60427;BME280;46274;47.168;27.604;2024-02-26T16:33:16;99558.88;;;10.69;65.03
60427;BME280;46274;47.168;27.604;2024-02-26T16:39:48;99656.69;;;11.25;64.94
60427;BME280;46274;47.168;27.604;2024-02-26T16:45:57;99675.72;;;11.47;64.17
60427;BME280;46274;47.168;27.604;2024-02-26T16:52:23;99335.66;;;9.25;64.14
60427;BME280;46274;47.168;27.604;2024-02-26T16:58:42;99524.47;;;10.33;64.81
60427;BME280;46274;47.168;27.604;2024-02-26T17:04:56;99453.88;;;9.90;64.17
60427;BME280;46274;47.168;27.604;2024-02-26T17:11:04;99574.88;;;10.64;63.60
60427;BME280;46274;47.168;27.604;2024-02-26T17:17:11;99709.53;;;11.29;63.67
60427;BME280;46274;47.168;27.604;2024-02-26T17:23:15;99645.38;;;10.85;63.19
60427;BME280;46274;47.168;27.604;2024-02-26T17:29:21;99558.78;;;10.18;63.71
60427;BME280;46274;47.168;27.604;2024-02-26T17:35:37;99717.59;;;11.08;63.30
60427;BME280;46274;47.168;27.604;2024-02-26T17:41:43;99730.66;;;11.19;62.62
60427;BME280;46274;47.168;27.604;2024-02-26T17:47:55;99365.25;;;8.88;62.92
60427;BME280;46274;47.168;27.604;2024-02-26T17:54:18;99558.59;;;10.04;62.54
60427;BME280;46274;47.168;27.604;2024-02-26T18:00:21;99709.56;;;10.85;62.84
60427;BME280;46274;47.168;27.604;2024-02-26T18:06:38;99387.84;;;8.87;61.05
60427;BME280;46274;47.168;27.604;2024-02-26T18:13:03;99336.41;;;8.66;60.51
60427;BME280;46274;47.168;27.604;2024-02-26T18:19:08;99599.50;;;10.10;60.47
60427;BME280;46274;47.168;27.604;2024-02-26T18:25:21;99759.38;;;11.13;59.85
60427;BME280;46274;47.168;27.604;2024-02-26T18:31:43;99392.44;;;8.87;59.19
60427;BME280;46274;47.168;27.604;2024-02-26T18:38:17;99509.03;;;9.74;57.75
60427;BME280;46274;47.168;27.604;2024-02-26T18:44:31;99393.47;;;9.01;57.26
60427;BME280;46274;47.168;27.604;2024-02-26T18:50:46;99766.03;;;11.11;57.64
60427;BME280;46274;47.168;27.604;2024-02-26T18:56:57;99735.44;;;10.58;59.29
60427;BME280;46274;47.168;27.604;2024-02-26T19:02:59;99788.16;;;10.85;58.35
60427;BME280;46274;47.168;27.604;2024-02-26T19:09:04;99756.06;;;10.44;58.85
60427;BME280;46274;47.168;27.604;2024-02-26T19:15:07;99383.38;;;8.02;59.67
60427;BME280;46274;47.168;27.604;2024-02-26T19:21:35;99800.31;;;10.36;60.28
60427;BME280;46274;47.168;27.604;2024-02-26T19:27:43;99806.53;;;10.14;61.33
60427;BME280;46274;47.168;27.604;2024-02-26T19:34:02;99430.19;;;7.78;60.84
60427;BME280;46274;47.168;27.604;2024-02-26T19:40:13;99579.03;;;8.38;63.12
60427;BME280;46274;47.168;27.604;2024-02-26T19:46:23;99785.31;;;9.40;65.67
60427;BME280;46274;47.168;27.604;2024-02-26T19:52:49;99378.69;;;6.68;66.76
60427;BME280;46274;47.168;27.604;2024-02-26T19:59:01;99704.53;;;8.58;67.40
60427;BME280;46274;47.168;27.604;2024-02-26T20:05:25;99700.66;;;8.36;68.01
60427;BME280;46274;47.168;27.604;2024-02-26T20:11:52;99785.69;;;8.73;68.31
60427;BME280;46274;47.168;27.604;2024-02-26T20:18:10;99687.03;;;8.21;66.55
60427;BME280;46274;47.168;27.604;2024-02-26T20:24:20;99850.41;;;9.30;65.72
60427;BME280;46274;47.168;27.604;2024-02-26T20:30:26;99813.50;;;8.90;66.16
60427;BME280;46274;47.168;27.604;2024-02-26T20:36:56;99711.50;;;8.12;66.87
60427;BME280;46274;47.168;27.604;2024-02-26T20:42:59;99746.22;;;8.15;67.00
60427;BME280;46274;47.168;27.604;2024-02-26T20:49:12;99750.94;;;7.96;67.93
60427;BME280;46274;47.168;27.604;2024-02-26T20:55:24;99826.06;;;8.42;67.56
60427;BME280;46274;47.168;27.604;2024-02-26T21:01:29;99618.84;;;6.96;68.08
60427;BME280;46274;47.168;27.604;2024-02-26T21:07:36;99521.78;;;6.39;68.14
60427;BME280;46274;47.168;27.604;2024-02-26T21:13:42;99749.34;;;7.53;69.25
60427;BME280;46274;47.168;27.604;2024-02-26T21:19:59;99777.38;;;7.76;67.28
60427;BME280;46274;47.168;27.604;2024-02-26T21:26:14;99493.91;;;6.06;66.31
60427;BME280;46274;47.168;27.604;2024-02-26T21:32:47;99503.38;;;5.84;67.16
60427;BME280;46274;47.168;27.604;2024-02-26T21:38:52;99941.13;;;8.43;68.58
60427;BME280;46274;47.168;27.604;2024-02-26T21:45:02;99695.59;;;6.84;68.80
60427;BME280;46274;47.168;27.604;2024-02-26T21:51:15;99786.81;;;7.21;70.68
60427;BME280;46274;47.168;27.604;2024-02-26T21:57:25;99730.81;;;6.65;72.14
60427;BME280;46274;47.168;27.604;2024-02-26T22:03:28;99905.63;;;7.71;72.61
60427;BME280;46274;47.168;27.604;2024-02-26T22:09:49;99809.75;;;6.99;72.43
60427;BME280;46274;47.168;27.604;2024-02-26T22:15:59;99865.78;;;7.22;73.52
60427;BME280;46274;47.168;27.604;2024-02-26T22:22:13;99801.50;;;6.67;74.49
60427;BME280;46274;47.168;27.604;2024-02-26T22:28:36;99946.44;;;7.41;75.31
60427;BME280;46274;47.168;27.604;2024-02-26T22:34:40;99874.69;;;6.88;76.11
60427;BME280;46274;47.168;27.604;2024-02-26T22:40:43;99940.41;;;7.21;76.21
60427;BME280;46274;47.168;27.604;2024-02-26T22:46:53;99949.13;;;7.15;76.41
60427;BME280;46274;47.168;27.604;2024-02-26T22:53:02;99956.97;;;7.09;76.67
60427;BME280;46274;47.168;27.604;2024-02-26T22:59:21;99688.69;;;5.32;78.14
60427;BME280;46274;47.168;27.604;2024-02-26T23:05:36;99934.63;;;6.72;78.65
60427;BME280;46274;47.168;27.604;2024-02-26T23:11:41;99831.88;;;5.87;79.71
60427;BME280;46274;47.168;27.604;2024-02-26T23:17:48;99953.47;;;6.54;79.90
60427;BME280;46274;47.168;27.604;2024-02-26T23:23:51;99900.19;;;6.04;81.09
60427;BME280;46274;47.168;27.604;2024-02-26T23:29:54;99800.53;;;5.33;82.08
60427;BME280;46274;47.168;27.604;2024-02-26T23:36:00;99988.31;;;6.38;82.53
60427;BME280;46274;47.168;27.604;2024-02-26T23:42:13;99995.75;;;6.26;83.29
60427;BME280;46274;47.168;27.604;2024-02-26T23:48:30;99995.59;;;6.28;83.06
60427;BME280;46274;47.168;27.604;2024-02-26T23:54:36;99993.34;;;6.23;83.52
